sensor_id;sensor_type;location;lat;lon;timestamp;P1;durP1;ratioP1;P2;durP2;ratioP2
3133;SDS011;1577;49.912;10.924;2022-07-29T00:02:01;9.77;;;3.33;;
3133;SDS011;1577;49.912;10.924;2022-07-29T00:04:26;4.37;;;2.37;;
3133;SDS011;1577;49.912;10.924;2022-07-29T00:06:52;2.40;;;2.00;;
3133;SDS011;1577;49.912;10.924;2022-07-29T00:09:17;2.90;;;1.90;;
3133;SDS011;1577;49.912;10.924;2022-07-29T00:11:43;3.50;;;2.00;;
3133;SDS011;1577;49.912;10.924;2022-07-29T00:14:09;2.97;;;2.00;;
3133;SDS011;1577;49.912;10.924;2022-07-29T00:16:34;3.93;;;2.13;;
3133;SDS011;1577;49.912;10.924;2022-07-29T00:19:00;3.10;;;1.90;;
3133;SDS011;1577;49.912;10.924;2022-07-29T00:21:26;3.03;;;1.90;;
3133;SDS011;1577;49.912;10.924;2022-07-29T00:23:52;4.13;;;1.67;;
3133;SDS011;1577;49.912;10.924;2022-07-29T00:26:17;2.23;;;1.63;;
3133;SDS011;1577;49.912;10.924;2022-07-29T00:28:43;2.90;;;1.50;;
3133;SDS011;1577;49.912;10.924;2022-07-29T00:31:08;3.80;;;1.90;;
3133;SDS011;1577;49.912;10.924;2022-07-29T00:33:34;2.80;;;1.80;;
3133;SDS011;1577;49.912;10.924;2022-07-29T00:36:00;6.60;;;1.43;;
3133;SDS011;1577;49.912;10.924;2022-07-29T00:38:25;1.80;;;1.50;;
3133;SDS011;1577;49.912;10.924;2022-07-29T00:40:51;3.40;;;1.73;;
3133;SDS011;1577;49.912;10.924;2022-07-29T00:43:17;4.30;;;1.63;;
3133;SDS011;1577;49.912;10.924;2022-07-29T00:45:43;5.60;;;1.57;;
3133;SDS011;1577;49.912;10.924;2022-07-29T00:48:09;2.00;;;1.70;;
3133;SDS011;1577;49.912;10.924;2022-07-29T00:50:35;3.33;;;2.00;;
3133;SDS011;1577;49.912;10.924;2022-07-29T00:53:02;8.20;;;1.80;;
3133;SDS011;1577;49.912;10.924;2022-07-29T00:55:29;2.80;;;1.87;;
3133;SDS011;1577;49.912;10.924;2022-07-29T00:57:55;5.00;;;1.53;;
3133;SDS011;1577;49.912;10.924;2022-07-29T01:00:24;2.93;;;1.37;;
3133;SDS011;1577;49.912;10.924;2022-07-29T01:02:51;2.27;;;1.60;;
3133;SDS011;1577;49.912;10.924;2022-07-29T01:05:17;1.83;;;1.20;;
3133;SDS011;1577;49.912;10.924;2022-07-29T01:07:45;1.70;;;1.20;;
3133;SDS011;1577;49.912;10.924;2022-07-29T01:10:12;3.07;;;1.50;;
3133;SDS011;1577;49.912;10.924;2022-07-29T01:12:39;3.40;;;1.30;;
3133;SDS011;1577;49.912;10.924;2022-07-29T01:15:08;4.13;;;1.43;;
3133;SDS011;1577;49.912;10.924;2022-07-29T01:17:36;3.50;;;1.73;;
3133;SDS011;1577;49.912;10.924;2022-07-29T01:23:44;2.47;;;1.43;;
3133;SDS011;1577;49.912;10.924;2022-07-29T01:34:35;3.13;;;1.93;;
3133;SDS011;1577;49.912;10.924;2022-07-29T01:39:36;3.50;;;2.17;;
3133;SDS011;1577;49.912;10.924;2022-07-29T01:44:48;3.87;;;1.77;;
3133;SDS011;1577;49.912;10.924;2022-07-29T01:47:23;2.90;;;1.53;;
3133;SDS011;1577;49.912;10.924;2022-07-29T01:49:54;2.40;;;1.60;;
3133;SDS011;1577;49.912;10.924;2022-07-29T01:52:28;4.53;;;1.80;;
3133;SDS011;1577;49.912;10.924;2022-07-29T01:55:00;1.63;;;1.37;;
3133;SDS011;1577;49.912;10.924;2022-07-29T01:57:31;3.17;;;1.93;;
3133;SDS011;1577;49.912;10.924;2022-07-29T01:59:59;2.47;;;1.80;;
3133;SDS011;1577;49.912;10.924;2022-07-29T02:02:28;4.27;;;1.63;;
3133;SDS011;1577;49.912;10.924;2022-07-29T02:04:57;2.00;;;1.30;;
3133;SDS011;1577;49.912;10.924;2022-07-29T02:07:25;1.70;;;1.50;;
3133;SDS011;1577;49.912;10.924;2022-07-29T02:09:54;3.10;;;2.00;;
3133;SDS011;1577;49.912;10.924;2022-07-29T02:12:21;3.40;;;1.30;;
3133;SDS011;1577;49.912;10.924;2022-07-29T02:14:51;2.90;;;1.43;;
3133;SDS011;1577;49.912;10.924;2022-07-29T02:17:21;3.80;;;1.53;;
3133;SDS011;1577;49.912;10.924;2022-07-29T02:19:50;3.50;;;2.03;;
3133;SDS011;1577;49.912;10.924;2022-07-29T02:22:20;2.90;;;1.90;;
3133;SDS011;1577;49.912;10.924;2022-07-29T02:24:48;7.03;;;2.20;;
3133;SDS011;1577;49.912;10.924;2022-07-29T02:27:15;2.60;;;1.77;;
3133;SDS011;1577;49.912;10.924;2022-07-29T02:29:45;4.13;;;2.60;;
3133;SDS011;1577;49.912;10.924;2022-07-29T02:32:12;5.30;;;2.00;;
3133;SDS011;1577;49.912;10.924;2022-07-29T02:34:39;4.63;;;2.13;;
3133;SDS011;1577;49.912;10.924;2022-07-29T02:37:07;2.33;;;1.67;;
3133;SDS011;1577;49.912;10.924;2022-07-29T02:39:35;3.93;;;1.90;;
3133;SDS011;1577;49.912;10.924;2022-07-29T02:42:03;6.93;;;2.60;;
3133;SDS011;1577;49.912;10.924;2022-07-29T02:44:32;4.93;;;2.03;;
3133;SDS011;1577;49.912;10.924;2022-07-29T02:47:04;3.37;;;1.93;;
3133;SDS011;1577;49.912;10.924;2022-07-29T02:50:00;4.50;;;2.17;;
3133;SDS011;1577;49.912;10.924;2022-07-29T02:52:54;3.20;;;2.07;;
3133;SDS011;1577;49.912;10.924;2022-07-29T02:55:33;4.50;;;2.70;;
3133;SDS011;1577;49.912;10.924;2022-07-29T03:00:53;2.77;;;2.00;;
3133;SDS011;1577;49.912;10.924;2022-07-29T03:03:23;3.80;;;1.93;;
3133;SDS011;1577;49.912;10.924;2022-07-29T03:05:56;3.83;;;2.53;;
3133;SDS011;1577;49.912;10.924;2022-07-29T03:08:24;7.57;;;2.30;;
3133;SDS011;1577;49.912;10.924;2022-07-29T03:10:52;4.43;;;2.57;;
3133;SDS011;1577;49.912;10.924;2022-07-29T03:13:18;4.30;;;1.90;;
3133;SDS011;1577;49.912;10.924;2022-07-29T03:15:45;4.43;;;1.80;;
3133;SDS011;1577;49.912;10.924;2022-07-29T03:18:11;2.60;;;1.90;;
3133;SDS011;1577;49.912;10.924;2022-07-29T03:20:38;3.67;;;2.07;;
3133;SDS011;1577;49.912;10.924;2022-07-29T03:23:05;5.33;;;1.90;;
3133;SDS011;1577;49.912;10.924;2022-07-29T03:25:31;4.10;;;2.20;;
3133;SDS011;1577;49.912;10.924;2022-07-29T03:27:56;3.97;;;2.20;;
3133;SDS011;1577;49.912;10.924;2022-07-29T03:30:22;3.67;;;1.97;;
3133;SDS011;1577;49.912;10.924;2022-07-29T03:32:49;2.90;;;1.73;;
3133;SDS011;1577;49.912;10.924;2022-07-29T03:35:15;5.00;;;2.20;;
3133;SDS011;1577;49.912;10.924;2022-07-29T03:37:42;7.00;;;1.83;;
3133;SDS011;1577;49.912;10.924;2022-07-29T03:40:08;4.00;;;1.90;;
3133;SDS011;1577;49.912;10.924;2022-07-29T03:42:36;3.20;;;2.20;;
3133;SDS011;1577;49.912;10.924;2022-07-29T03:45:08;3.40;;;1.93;;
3133;SDS011;1577;49.912;10.924;2022-07-29T03:47:38;4.80;;;3.07;;
3133;SDS011;1577;49.912;10.924;2022-07-29T03:50:08;4.53;;;2.60;;
3133;SDS011;1577;49.912;10.924;2022-07-29T03:52:38;3.63;;;1.90;;
3133;SDS011;1577;49.912;10.924;2022-07-29T03:55:04;4.43;;;2.63;;
3133;SDS011;1577;49.912;10.924;2022-07-29T03:57:30;5.13;;;2.57;;
3133;SDS011;1577;49.912;10.924;2022-07-29T03:59:57;3.83;;;2.00;;
3133;SDS011;1577;49.912;10.924;2022-07-29T04:02:24;3.80;;;2.50;;
3133;SDS011;1577;49.912;10.924;2022-07-29T04:04:50;5.43;;;2.33;;
3133;SDS011;1577;49.912;10.924;2022-07-29T04:07:16;4.00;;;2.10;;
3133;SDS011;1577;49.912;10.924;2022-07-29T04:09:42;4.23;;;2.10;;
3133;SDS011;1577;49.912;10.924;2022-07-29T04:12:08;3.90;;;2.27;;
3133;SDS011;1577;49.912;10.924;2022-07-29T04:14:34;3.60;;;2.40;;
3133;SDS011;1577;49.912;10.924;2022-07-29T04:17:00;3.23;;;2.00;;
3133;SDS011;1577;49.912;10.924;2022-07-29T04:19:26;4.47;;;2.10;;
3133;SDS011;1577;49.912;10.924;2022-07-29T04:21:52;3.70;;;2.33;;
3133;SDS011;1577;49.912;10.924;2022-07-29T04:24:18;3.10;;;2.53;;
3133;SDS011;1577;49.912;10.924;2022-07-29T04:26:47;3.47;;;2.37;;
3133;SDS011;1577;49.912;10.924;2022-07-29T04:29:13;4.20;;;2.43;;
3133;SDS011;1577;49.912;10.924;2022-07-29T04:31:39;2.90;;;2.10;;
3133;SDS011;1577;49.912;10.924;2022-07-29T04:34:05;4.30;;;3.03;;
3133;SDS011;1577;49.912;10.924;2022-07-29T04:36:31;3.27;;;2.40;;
3133;SDS011;1577;49.912;10.924;2022-07-29T04:38:57;3.00;;;1.97;;
3133;SDS011;1577;49.912;10.924;2022-07-29T04:41:22;5.93;;;2.60;;
3133;SDS011;1577;49.912;10.924;2022-07-29T04:43:48;3.17;;;1.90;;
3133;SDS011;1577;49.912;10.924;2022-07-29T04:46:14;3.50;;;3.20;;
3133;SDS011;1577;49.912;10.924;2022-07-29T04:48:39;3.13;;;2.33;;
3133;SDS011;1577;49.912;10.924;2022-07-29T04:51:05;3.90;;;2.30;;
3133;SDS011;1577;49.912;10.924;2022-07-29T04:53:31;5.87;;;2.23;;
3133;SDS011;1577;49.912;10.924;2022-07-29T04:55:56;5.57;;;2.37;;
3133;SDS011;1577;49.912;10.924;2022-07-29T04:58:22;3.17;;;1.93;;
3133;SDS011;1577;49.912;10.924;2022-07-29T05:00:48;4.00;;;2.40;;
3133;SDS011;1577;49.912;10.924;2022-07-29T05:03:14;3.27;;;2.10;;
3133;SDS011;1577;49.912;10.924;2022-07-29T05:05:40;3.17;;;1.87;;
3133;SDS011;1577;49.912;10.924;2022-07-29T05:08:06;3.63;;;2.00;;
3133;SDS011;1577;49.912;10.924;2022-07-29T05:10:31;3.93;;;2.10;;
3133;SDS011;1577;49.912;10.924;2022-07-29T05:12:58;3.67;;;2.57;;
3133;SDS011;1577;49.912;10.924;2022-07-29T05:15:24;6.63;;;2.17;;
3133;SDS011;1577;49.912;10.924;2022-07-29T05:17:50;3.40;;;2.20;;
3133;SDS011;1577;49.912;10.924;2022-07-29T05:20:15;3.40;;;2.10;;
3133;SDS011;1577;49.912;10.924;2022-07-29T05:22:41;4.67;;;2.70;;
3133;SDS011;1577;49.912;10.924;2022-07-29T05:25:06;4.57;;;2.37;;
3133;SDS011;1577;49.912;10.924;2022-07-29T05:27:34;4.63;;;2.10;;
3133;SDS011;1577;49.912;10.924;2022-07-29T05:30:00;2.73;;;1.90;;
3133;SDS011;1577;49.912;10.924;2022-07-29T05:32:26;3.93;;;2.00;;
3133;SDS011;1577;49.912;10.924;2022-07-29T05:34:51;5.33;;;2.20;;
3133;SDS011;1577;49.912;10.924;2022-07-29T05:37:18;4.73;;;3.47;;
3133;SDS011;1577;49.912;10.924;2022-07-29T05:39:44;5.60;;;3.93;;
3133;SDS011;1577;49.912;10.924;2022-07-29T05:42:10;2.90;;;2.30;;
3133;SDS011;1577;49.912;10.924;2022-07-29T05:44:36;6.17;;;2.93;;
3133;SDS011;1577;49.912;10.924;2022-07-29T05:47:02;3.70;;;2.20;;
3133;SDS011;1577;49.912;10.924;2022-07-29T05:49:28;3.63;;;2.07;;
3133;SDS011;1577;49.912;10.924;2022-07-29T05:51:53;4.27;;;2.40;;
3133;SDS011;1577;49.912;10.924;2022-07-29T05:54:19;3.30;;;1.80;;
3133;SDS011;1577;49.912;10.924;2022-07-29T05:56:45;3.27;;;1.93;;
3133;SDS011;1577;49.912;10.924;2022-07-29T05:59:11;3.93;;;2.50;;
3133;SDS011;1577;49.912;10.924;2022-07-29T06:01:37;4.20;;;2.13;;
3133;SDS011;1577;49.912;10.924;2022-07-29T06:04:04;2.87;;;1.73;;
3133;SDS011;1577;49.912;10.924;2022-07-29T06:06:31;5.83;;;1.70;;
3133;SDS011;1577;49.912;10.924;2022-07-29T06:08:57;2.60;;;1.80;;
3133;SDS011;1577;49.912;10.924;2022-07-29T06:11:22;3.90;;;2.50;;
3133;SDS011;1577;49.912;10.924;2022-07-29T06:13:48;5.37;;;1.80;;
3133;SDS011;1577;49.912;10.924;2022-07-29T06:16:13;4.80;;;2.67;;
3133;SDS011;1577;49.912;10.924;2022-07-29T06:18:39;3.53;;;1.87;;
3133;SDS011;1577;49.912;10.924;2022-07-29T06:21:08;5.43;;;1.83;;
3133;SDS011;1577;49.912;10.924;2022-07-29T06:23:35;3.33;;;1.70;;
3133;SDS011;1577;49.912;10.924;2022-07-29T06:26:01;3.57;;;2.03;;
3133;SDS011;1577;49.912;10.924;2022-07-29T06:28:27;4.20;;;1.93;;
3133;SDS011;1577;49.912;10.924;2022-07-29T06:30:53;5.57;;;1.97;;
3133;SDS011;1577;49.912;10.924;2022-07-29T06:33:19;9.03;;;1.97;;
3133;SDS011;1577;49.912;10.924;2022-07-29T06:35:44;2.80;;;1.77;;
3133;SDS011;1577;49.912;10.924;2022-07-29T06:38:12;4.03;;;1.70;;
3133;SDS011;1577;49.912;10.924;2022-07-29T06:40:44;5.93;;;1.77;;
3133;SDS011;1577;49.912;10.924;2022-07-29T06:43:37;3.60;;;2.20;;
3133;SDS011;1577;49.912;10.924;2022-07-29T06:46:07;3.77;;;1.83;;
3133;SDS011;1577;49.912;10.924;2022-07-29T06:48:33;4.47;;;1.70;;
3133;SDS011;1577;49.912;10.924;2022-07-29T06:51:00;2.57;;;1.30;;
3133;SDS011;1577;49.912;10.924;2022-07-29T06:53:28;3.67;;;1.77;;
3133;SDS011;1577;49.912;10.924;2022-07-29T06:55:54;2.20;;;1.63;;
3133;SDS011;1577;49.912;10.924;2022-07-29T06:58:20;3.80;;;1.90;;
3133;SDS011;1577;49.912;10.924;2022-07-29T07:00:46;4.10;;;2.17;;
3133;SDS011;1577;49.912;10.924;2022-07-29T07:03:13;2.90;;;1.37;;
3133;SDS011;1577;49.912;10.924;2022-07-29T07:05:39;1.67;;;1.27;;
3133;SDS011;1577;49.912;10.924;2022-07-29T07:08:05;3.00;;;1.73;;
3133;SDS011;1577;49.912;10.924;2022-07-29T07:10:31;7.90;;;2.00;;
3133;SDS011;1577;49.912;10.924;2022-07-29T07:12:57;1.30;;;1.20;;
3133;SDS011;1577;49.912;10.924;2022-07-29T07:15:23;2.50;;;1.17;;
3133;SDS011;1577;49.912;10.924;2022-07-29T07:17:49;2.60;;;1.17;;
3133;SDS011;1577;49.912;10.924;2022-07-29T07:20:15;2.43;;;1.10;;
3133;SDS011;1577;49.912;10.924;2022-07-29T07:22:42;2.60;;;1.30;;
3133;SDS011;1577;49.912;10.924;2022-07-29T07:25:07;5.03;;;1.50;;
3133;SDS011;1577;49.912;10.924;2022-07-29T07:27:34;2.03;;;1.20;;
3133;SDS011;1577;49.912;10.924;2022-07-29T07:30:01;2.17;;;1.10;;
3133;SDS011;1577;49.912;10.924;2022-07-29T07:32:28;2.30;;;1.50;;
3133;SDS011;1577;49.912;10.924;2022-07-29T07:34:54;1.70;;;1.27;;
3133;SDS011;1577;49.912;10.924;2022-07-29T07:37:19;2.03;;;1.33;;
3133;SDS011;1577;49.912;10.924;2022-07-29T07:39:45;2.73;;;1.40;;
3133;SDS011;1577;49.912;10.924;2022-07-29T07:42:11;2.90;;;1.10;;
3133;SDS011;1577;49.912;10.924;2022-07-29T07:44:38;1.87;;;1.20;;
3133;SDS011;1577;49.912;10.924;2022-07-29T07:47:04;1.50;;;1.40;;
3133;SDS011;1577;49.912;10.924;2022-07-29T07:49:30;5.20;;;1.63;;
3133;SDS011;1577;49.912;10.924;2022-07-29T07:51:56;2.17;;;1.37;;
3133;SDS011;1577;49.912;10.924;2022-07-29T07:54:21;3.00;;;1.40;;
3133;SDS011;1577;49.912;10.924;2022-07-29T07:56:47;2.07;;;1.33;;
3133;SDS011;1577;49.912;10.924;2022-07-29T07:59:14;3.90;;;1.20;;
3133;SDS011;1577;49.912;10.924;2022-07-29T08:01:40;2.60;;;1.70;;
3133;SDS011;1577;49.912;10.924;2022-07-29T08:04:06;2.43;;;1.27;;
3133;SDS011;1577;49.912;10.924;2022-07-29T08:06:32;2.30;;;1.30;;
3133;SDS011;1577;49.912;10.924;2022-07-29T08:08:59;2.90;;;1.50;;
3133;SDS011;1577;49.912;10.924;2022-07-29T08:11:25;1.70;;;1.50;;
3133;SDS011;1577;49.912;10.924;2022-07-29T08:13:51;3.00;;;1.27;;
3133;SDS011;1577;49.912;10.924;2022-07-29T08:16:17;1.73;;;1.30;;
3133;SDS011;1577;49.912;10.924;2022-07-29T08:18:43;7.63;;;1.67;;
3133;SDS011;1577;49.912;10.924;2022-07-29T08:21:09;2.23;;;1.30;;
3133;SDS011;1577;49.912;10.924;2022-07-29T08:23:35;1.80;;;1.40;;
3133;SDS011;1577;49.912;10.924;2022-07-29T08:26:07;1.63;;;1.40;;
3133;SDS011;1577;49.912;10.924;2022-07-29T08:28:38;2.10;;;1.40;;
3133;SDS011;1577;49.912;10.924;2022-07-29T08:31:05;2.40;;;1.40;;
3133;SDS011;1577;49.912;10.924;2022-07-29T08:33:31;1.93;;;1.50;;
3133;SDS011;1577;49.912;10.924;2022-07-29T08:35:57;1.97;;;1.40;;
3133;SDS011;1577;49.912;10.924;2022-07-29T08:38:23;1.97;;;1.60;;
3133;SDS011;1577;49.912;10.924;2022-07-29T08:40:51;1.37;;;1.27;;
3133;SDS011;1577;49.912;10.924;2022-07-29T08:43:17;1.57;;;1.30;;
3133;SDS011;1577;49.912;10.924;2022-07-29T08:45:51;1.63;;;1.53;;
3133;SDS011;1577;49.912;10.924;2022-07-29T08:48:18;1.90;;;1.80;;
3133;SDS011;1577;49.912;10.924;2022-07-29T08:50:45;1.70;;;1.60;;
3133;SDS011;1577;49.912;10.924;2022-07-29T08:53:13;2.50;;;1.60;;
3133;SDS011;1577;49.912;10.924;2022-07-29T08:55:43;2.13;;;1.77;;
3133;SDS011;1577;49.912;10.924;2022-07-29T08:58:10;3.30;;;1.57;;
3133;SDS011;1577;49.912;10.924;2022-07-29T09:00:37;3.07;;;1.47;;
3133;SDS011;1577;49.912;10.924;2022-07-29T09:03:07;2.03;;;1.50;;
3133;SDS011;1577;49.912;10.924;2022-07-29T09:05:37;1.70;;;1.43;;
3133;SDS011;1577;49.912;10.924;2022-07-29T09:08:06;1.87;;;1.77;;
3133;SDS011;1577;49.912;10.924;2022-07-29T09:10:32;3.37;;;1.60;;
3133;SDS011;1577;49.912;10.924;2022-07-29T09:12:59;1.80;;;1.70;;
3133;SDS011;1577;49.912;10.924;2022-07-29T09:15:25;2.50;;;1.50;;
3133;SDS011;1577;49.912;10.924;2022-07-29T09:17:51;1.80;;;1.63;;
3133;SDS011;1577;49.912;10.924;2022-07-29T09:20:17;3.90;;;1.50;;
3133;SDS011;1577;49.912;10.924;2022-07-29T09:22:45;1.80;;;1.50;;
3133;SDS011;1577;49.912;10.924;2022-07-29T09:25:14;2.57;;;1.97;;
3133;SDS011;1577;49.912;10.924;2022-07-29T09:28:05;2.90;;;2.10;;
3133;SDS011;1577;49.912;10.924;2022-07-29T09:30:35;1.73;;;1.53;;
3133;SDS011;1577;49.912;10.924;2022-07-29T09:33:02;1.80;;;1.63;;
3133;SDS011;1577;49.912;10.924;2022-07-29T09:35:29;2.43;;;2.23;;
3133;SDS011;1577;49.912;10.924;2022-07-29T09:37:55;3.30;;;1.67;;
3133;SDS011;1577;49.912;10.924;2022-07-29T09:42:53;2.20;;;1.60;;
3133;SDS011;1577;49.912;10.924;2022-07-29T09:45:30;1.93;;;1.70;;
3133;SDS011;1577;49.912;10.924;2022-07-29T09:47:58;4.10;;;1.57;;
3133;SDS011;1577;49.912;10.924;2022-07-29T09:50:40;2.50;;;1.73;;
3133;SDS011;1577;49.912;10.924;2022-07-29T09:53:08;3.63;;;2.10;;
3133;SDS011;1577;49.912;10.924;2022-07-29T09:55:47;2.67;;;1.90;;
3133;SDS011;1577;49.912;10.924;2022-07-29T10:00:44;1.97;;;1.87;;
3133;SDS011;1577;49.912;10.924;2022-07-29T10:03:11;1.90;;;1.80;;
3133;SDS011;1577;49.912;10.924;2022-07-29T10:05:38;2.93;;;2.10;;
3133;SDS011;1577;49.912;10.924;2022-07-29T10:08:04;2.10;;;1.77;;
3133;SDS011;1577;49.912;10.924;2022-07-29T10:10:31;1.83;;;1.40;;
3133;SDS011;1577;49.912;10.924;2022-07-29T10:13:02;3.00;;;1.40;;
3133;SDS011;1577;49.912;10.924;2022-07-29T10:15:34;4.03;;;1.70;;
3133;SDS011;1577;49.912;10.924;2022-07-29T10:18:03;2.53;;;1.60;;
3133;SDS011;1577;49.912;10.924;2022-07-29T10:20:30;2.17;;;1.60;;
3133;SDS011;1577;49.912;10.924;2022-07-29T10:22:56;2.00;;;1.70;;
3133;SDS011;1577;49.912;10.924;2022-07-29T10:25:22;1.70;;;1.60;;
3133;SDS011;1577;49.912;10.924;2022-07-29T10:27:49;3.30;;;1.70;;
3133;SDS011;1577;49.912;10.924;2022-07-29T10:30:19;2.00;;;1.70;;
3133;SDS011;1577;49.912;10.924;2022-07-29T10:44:01;2.10;;;1.77;;
3133;SDS011;1577;49.912;10.924;2022-07-29T10:46:43;2.33;;;1.60;;
3133;SDS011;1577;49.912;10.924;2022-07-29T10:49:11;4.37;;;2.30;;
3133;SDS011;1577;49.912;10.924;2022-07-29T10:57:19;3.53;;;1.87;;
3133;SDS011;1577;49.912;10.924;2022-07-29T11:05:07;7.60;;;2.20;;
3133;SDS011;1577;49.912;10.924;2022-07-29T11:07:34;4.53;;;2.70;;
3133;SDS011;1577;49.912;10.924;2022-07-29T11:15:20;3.43;;;1.97;;
3133;SDS011;1577;49.912;10.924;2022-07-29T11:23:23;2.57;;;2.37;;
3133;SDS011;1577;49.912;10.924;2022-07-29T11:31:40;3.07;;;2.00;;
3133;SDS011;1577;49.912;10.924;2022-07-29T11:45:06;2.63;;;2.00;;
3133;SDS011;1577;49.912;10.924;2022-07-29T11:50:12;2.47;;;2.20;;
3133;SDS011;1577;49.912;10.924;2022-07-29T11:52:43;3.63;;;1.80;;
3133;SDS011;1577;49.912;10.924;2022-07-29T11:55:16;2.83;;;2.00;;
3133;SDS011;1577;49.912;10.924;2022-07-29T11:57:47;2.50;;;1.53;;
3133;SDS011;1577;49.912;10.924;2022-07-29T12:00:21;3.57;;;2.20;;
3133;SDS011;1577;49.912;10.924;2022-07-29T12:02:48;2.50;;;2.03;;
3133;SDS011;1577;49.912;10.924;2022-07-29T12:05:13;2.80;;;2.00;;
3133;SDS011;1577;49.912;10.924;2022-07-29T12:07:39;3.10;;;1.97;;
3133;SDS011;1577;49.912;10.924;2022-07-29T12:10:07;3.30;;;1.93;;
3133;SDS011;1577;49.912;10.924;2022-07-29T12:12:34;4.70;;;2.20;;
3133;SDS011;1577;49.912;10.924;2022-07-29T12:15:16;3.10;;;2.17;;
3133;SDS011;1577;49.912;10.924;2022-07-29T12:17:45;2.40;;;2.20;;
3133;SDS011;1577;49.912;10.924;2022-07-29T12:20:12;2.40;;;2.20;;
3133;SDS011;1577;49.912;10.924;2022-07-29T12:22:41;2.67;;;2.27;;
3133;SDS011;1577;49.912;10.924;2022-07-29T12:25:12;2.37;;;1.97;;
3133;SDS011;1577;49.912;10.924;2022-07-29T12:27:43;2.33;;;2.10;;
3133;SDS011;1577;49.912;10.924;2022-07-29T12:30:10;4.90;;;2.33;;
3133;SDS011;1577;49.912;10.924;2022-07-29T12:32:38;3.23;;;2.27;;
3133;SDS011;1577;49.912;10.924;2022-07-29T12:35:12;3.10;;;2.37;;
3133;SDS011;1577;49.912;10.924;2022-07-29T12:37:41;2.40;;;2.20;;
3133;SDS011;1577;49.912;10.924;2022-07-29T12:40:10;2.90;;;2.60;;
3133;SDS011;1577;49.912;10.924;2022-07-29T12:42:37;2.57;;;2.37;;
3133;SDS011;1577;49.912;10.924;2022-07-29T12:45:04;3.30;;;2.47;;
3133;SDS011;1577;49.912;10.924;2022-07-29T12:47:30;5.27;;;2.90;;
3133;SDS011;1577;49.912;10.924;2022-07-29T12:50:10;2.67;;;2.47;;
3133;SDS011;1577;49.912;10.924;2022-07-29T12:52:42;6.30;;;3.27;;
3133;SDS011;1577;49.912;10.924;2022-07-29T12:55:09;2.50;;;2.30;;
3133;SDS011;1577;49.912;10.924;2022-07-29T12:57:47;2.83;;;2.63;;
3133;SDS011;1577;49.912;10.924;2022-07-29T13:00:15;3.40;;;2.80;;
3133;SDS011;1577;49.912;10.924;2022-07-29T13:02:42;3.47;;;2.33;;
3133;SDS011;1577;49.912;10.924;2022-07-29T13:05:09;2.33;;;2.13;;
3133;SDS011;1577;49.912;10.924;2022-07-29T13:07:36;2.87;;;2.67;;
3133;SDS011;1577;49.912;10.924;2022-07-29T13:12:39;3.50;;;2.67;;
3133;SDS011;1577;49.912;10.924;2022-07-29T13:15:24;2.60;;;2.40;;
3133;SDS011;1577;49.912;10.924;2022-07-29T13:17:50;2.80;;;2.10;;
3133;SDS011;1577;49.912;10.924;2022-07-29T13:20:16;3.00;;;2.70;;
3133;SDS011;1577;49.912;10.924;2022-07-29T13:22:41;7.53;;;2.50;;
3133;SDS011;1577;49.912;10.924;2022-07-29T13:25:08;4.30;;;2.60;;
3133;SDS011;1577;49.912;10.924;2022-07-29T13:27:35;2.83;;;2.53;;
3133;SDS011;1577;49.912;10.924;2022-07-29T13:30:03;3.00;;;2.80;;
3133;SDS011;1577;49.912;10.924;2022-07-29T13:32:31;3.23;;;2.63;;
3133;SDS011;1577;49.912;10.924;2022-07-29T13:35:02;3.70;;;2.80;;
3133;SDS011;1577;49.912;10.924;2022-07-29T13:37:29;3.00;;;2.07;;
3133;SDS011;1577;49.912;10.924;2022-07-29T13:39:57;4.40;;;2.70;;
3133;SDS011;1577;49.912;10.924;2022-07-29T13:42:24;4.73;;;2.30;;
3133;SDS011;1577;49.912;10.924;2022-07-29T13:44:50;6.00;;;2.10;;
3133;SDS011;1577;49.912;10.924;2022-07-29T13:47:16;3.67;;;2.83;;
3133;SDS011;1577;49.912;10.924;2022-07-29T13:49:43;4.17;;;2.50;;
3133;SDS011;1577;49.912;10.924;2022-07-29T13:52:08;2.90;;;2.57;;
3133;SDS011;1577;49.912;10.924;2022-07-29T13:54:34;4.17;;;2.60;;
3133;SDS011;1577;49.912;10.924;2022-07-29T13:57:05;3.17;;;2.60;;
3133;SDS011;1577;49.912;10.924;2022-07-29T13:59:31;3.20;;;2.37;;
3133;SDS011;1577;49.912;10.924;2022-07-29T14:01:57;3.27;;;2.67;;
3133;SDS011;1577;49.912;10.924;2022-07-29T14:04:23;2.50;;;2.23;;
3133;SDS011;1577;49.912;10.924;2022-07-29T14:06:49;2.70;;;2.50;;
3133;SDS011;1577;49.912;10.924;2022-07-29T14:09:15;3.43;;;3.13;;
3133;SDS011;1577;49.912;10.924;2022-07-29T14:11:41;6.03;;;3.10;;
3133;SDS011;1577;49.912;10.924;2022-07-29T14:14:07;2.03;;;1.90;;
3133;SDS011;1577;49.912;10.924;2022-07-29T14:16:32;2.80;;;2.33;;
3133;SDS011;1577;49.912;10.924;2022-07-29T14:18:58;3.17;;;2.97;;
3133;SDS011;1577;49.912;10.924;2022-07-29T14:21:24;3.70;;;2.90;;
3133;SDS011;1577;49.912;10.924;2022-07-29T14:23:50;3.57;;;2.60;;
3133;SDS011;1577;49.912;10.924;2022-07-29T14:26:16;3.73;;;3.10;;
3133;SDS011;1577;49.912;10.924;2022-07-29T14:28:42;3.50;;;2.93;;
3133;SDS011;1577;49.912;10.924;2022-07-29T14:31:08;4.00;;;2.83;;
3133;SDS011;1577;49.912;10.924;2022-07-29T14:33:34;2.90;;;2.50;;
3133;SDS011;1577;49.912;10.924;2022-07-29T14:35:59;4.20;;;3.00;;
3133;SDS011;1577;49.912;10.924;2022-07-29T14:38:25;6.13;;;2.97;;
3133;SDS011;1577;49.912;10.924;2022-07-29T14:40:51;2.93;;;2.73;;
3133;SDS011;1577;49.912;10.924;2022-07-29T14:43:16;4.13;;;3.30;;
3133;SDS011;1577;49.912;10.924;2022-07-29T14:45:42;3.10;;;2.80;;
3133;SDS011;1577;49.912;10.924;2022-07-29T14:48:08;3.30;;;2.47;;
3133;SDS011;1577;49.912;10.924;2022-07-29T14:50:33;2.60;;;2.40;;
3133;SDS011;1577;49.912;10.924;2022-07-29T14:52:59;4.07;;;2.90;;
3133;SDS011;1577;49.912;10.924;2022-07-29T14:55:25;4.00;;;2.97;;
3133;SDS011;1577;49.912;10.924;2022-07-29T14:57:51;6.63;;;2.87;;
3133;SDS011;1577;49.912;10.924;2022-07-29T15:00:17;2.97;;;2.60;;
3133;SDS011;1577;49.912;10.924;2022-07-29T15:02:43;7.07;;;2.80;;
3133;SDS011;1577;49.912;10.924;2022-07-29T15:05:08;3.63;;;2.70;;
3133;SDS011;1577;49.912;10.924;2022-07-29T15:07:34;4.63;;;3.37;;
3133;SDS011;1577;49.912;10.924;2022-07-29T15:10:00;3.83;;;2.53;;
3133;SDS011;1577;49.912;10.924;2022-07-29T15:12:25;3.90;;;2.40;;
3133;SDS011;1577;49.912;10.924;2022-07-29T15:14:51;2.50;;;1.97;;
3133;SDS011;1577;49.912;10.924;2022-07-29T15:17:16;2.10;;;1.90;;
3133;SDS011;1577;49.912;10.924;2022-07-29T15:19:42;2.63;;;2.30;;
3133;SDS011;1577;49.912;10.924;2022-07-29T15:22:08;5.23;;;2.43;;
3133;SDS011;1577;49.912;10.924;2022-07-29T15:24:33;2.33;;;2.13;;
3133;SDS011;1577;49.912;10.924;2022-07-29T15:26:59;1.77;;;1.50;;
3133;SDS011;1577;49.912;10.924;2022-07-29T15:29:25;2.10;;;1.80;;
3133;SDS011;1577;49.912;10.924;2022-07-29T15:31:51;3.60;;;1.80;;
3133;SDS011;1577;49.912;10.924;2022-07-29T15:34:16;2.93;;;1.83;;
3133;SDS011;1577;49.912;10.924;2022-07-29T15:36:42;2.20;;;1.67;;
3133;SDS011;1577;49.912;10.924;2022-07-29T15:39:08;2.60;;;2.07;;
3133;SDS011;1577;49.912;10.924;2022-07-29T15:41:34;3.10;;;2.77;;
3133;SDS011;1577;49.912;10.924;2022-07-29T15:44:01;3.43;;;2.50;;
3133;SDS011;1577;49.912;10.924;2022-07-29T15:46:28;3.97;;;2.83;;
3133;SDS011;1577;49.912;10.924;2022-07-29T15:49:14;2.93;;;2.53;;
3133;SDS011;1577;49.912;10.924;2022-07-29T15:51:42;5.57;;;3.20;;
3133;SDS011;1577;49.912;10.924;2022-07-29T15:54:08;4.47;;;2.93;;
3133;SDS011;1577;49.912;10.924;2022-07-29T15:56:33;4.50;;;3.63;;
3133;SDS011;1577;49.912;10.924;2022-07-29T15:58:59;7.60;;;3.63;;
3133;SDS011;1577;49.912;10.924;2022-07-29T16:01:25;3.73;;;3.43;;
3133;SDS011;1577;49.912;10.924;2022-07-29T16:03:50;4.53;;;3.90;;
3133;SDS011;1577;49.912;10.924;2022-07-29T16:06:16;9.43;;;4.00;;
3133;SDS011;1577;49.912;10.924;2022-07-29T16:08:42;4.60;;;4.20;;
3133;SDS011;1577;49.912;10.924;2022-07-29T16:11:08;7.33;;;4.43;;
3133;SDS011;1577;49.912;10.924;2022-07-29T16:13:33;7.13;;;4.80;;
3133;SDS011;1577;49.912;10.924;2022-07-29T16:16:00;4.67;;;4.20;;
3133;SDS011;1577;49.912;10.924;2022-07-29T16:18:26;6.77;;;5.10;;
3133;SDS011;1577;49.912;10.924;2022-07-29T16:20:51;10.10;;;6.60;;
3133;SDS011;1577;49.912;10.924;2022-07-29T16:23:17;7.17;;;4.80;;